sensor_id;sensor_type;location;lat;lon;timestamp;P1;durP1;ratioP1;P2;durP2;ratioP2
79414;SDS011;68864;44.972;19.612;2023-05-23T00:01:08;7.95;;;4.05;;
79414;SDS011;68864;44.972;19.612;2023-05-23T00:03:36;7.43;;;4.57;;
79414;SDS011;68864;44.972;19.612;2023-05-23T00:06:04;8.07;;;4.50;;
79414;SDS011;68864;44.972;19.612;2023-05-23T00:08:32;8.57;;;3.97;;
79414;SDS011;68864;44.972;19.612;2023-05-23T00:10:59;8.15;;;3.75;;
79414;SDS011;68864;44.972;19.612;2023-05-23T00:13:25;7.80;;;4.72;;
79414;SDS011;68864;44.972;19.612;2023-05-23T00:15:52;7.28;;;5.47;;
79414;SDS011;68864;44.972;19.612;2023-05-23T00:18:19;9.40;;;5.35;;
79414;SDS011;68864;44.972;19.612;2023-05-23T00:20:50;8.50;;;3.92;;
79414;SDS011;68864;44.972;19.612;2023-05-23T00:23:17;8.63;;;5.03;;
79414;SDS011;68864;44.972;19.612;2023-05-23T00:25:45;11.63;;;4.18;;
79414;SDS011;68864;44.972;19.612;2023-05-23T00:28:17;12.65;;;4.85;;
79414;SDS011;68864;44.972;19.612;2023-05-23T00:30:44;10.18;;;5.03;;
79414;SDS011;68864;44.972;19.612;2023-05-23T00:33:10;7.85;;;4.60;;
79414;SDS011;68864;44.972;19.612;2023-05-23T00:35:38;10.95;;;4.05;;
79414;SDS011;68864;44.972;19.612;2023-05-23T00:38:07;8.95;;;5.32;;
79414;SDS011;68864;44.972;19.612;2023-05-23T00:40:35;7.03;;;3.67;;
79414;SDS011;68864;44.972;19.612;2023-05-23T00:43:02;8.13;;;4.95;;
79414;SDS011;68864;44.972;19.612;2023-05-23T00:45:29;10.63;;;5.13;;
79414;SDS011;68864;44.972;19.612;2023-05-23T00:47:55;8.10;;;3.53;;
79414;SDS011;68864;44.972;19.612;2023-05-23T00:50:23;7.80;;;4.28;;
79414;SDS011;68864;44.972;19.612;2023-05-23T00:52:54;9.25;;;4.70;;
79414;SDS011;68864;44.972;19.612;2023-05-23T00:55:23;8.23;;;6.03;;
79414;SDS011;68864;44.972;19.612;2023-05-23T00:57:50;8.27;;;4.35;;
79414;SDS011;68864;44.972;19.612;2023-05-23T01:00:19;9.63;;;4.05;;
79414;SDS011;68864;44.972;19.612;2023-05-23T01:02:49;7.22;;;4.25;;
79414;SDS011;68864;44.972;19.612;2023-05-23T01:05:17;9.02;;;4.40;;
79414;SDS011;68864;44.972;19.612;2023-05-23T01:07:46;11.43;;;5.82;;
79414;SDS011;68864;44.972;19.612;2023-05-23T01:10:14;8.50;;;3.92;;
79414;SDS011;68864;44.972;19.612;2023-05-23T01:12:48;8.70;;;3.50;;
79414;SDS011;68864;44.972;19.612;2023-05-23T01:15:25;7.65;;;3.72;;
79414;SDS011;68864;44.972;19.612;2023-05-23T01:17:57;9.00;;;4.28;;
79414;SDS011;68864;44.972;19.612;2023-05-23T01:20:27;8.43;;;4.30;;
79414;SDS011;68864;44.972;19.612;2023-05-23T01:23:06;8.30;;;4.20;;
79414;SDS011;68864;44.972;19.612;2023-05-23T01:25:46;8.77;;;4.50;;
79414;SDS011;68864;44.972;19.612;2023-05-23T01:28:25;10.68;;;5.43;;
79414;SDS011;68864;44.972;19.612;2023-05-23T01:30:56;12.98;;;6.68;;
79414;SDS011;68864;44.972;19.612;2023-05-23T01:33:24;18.42;;;7.13;;
79414;SDS011;68864;44.972;19.612;2023-05-23T01:35:52;14.20;;;6.93;;
79414;SDS011;68864;44.972;19.612;2023-05-23T01:38:23;13.45;;;7.00;;
79414;SDS011;68864;44.972;19.612;2023-05-23T01:40:50;15.27;;;6.82;;
79414;SDS011;68864;44.972;19.612;2023-05-23T01:43:17;14.77;;;7.78;;
79414;SDS011;68864;44.972;19.612;2023-05-23T01:45:45;17.15;;;7.03;;
79414;SDS011;68864;44.972;19.612;2023-05-23T01:48:13;14.75;;;6.93;;
79414;SDS011;68864;44.972;19.612;2023-05-23T01:50:41;12.77;;;6.05;;
79414;SDS011;68864;44.972;19.612;2023-05-23T01:53:11;13.65;;;7.63;;
79414;SDS011;68864;44.972;19.612;2023-05-23T01:55:38;12.95;;;6.72;;
79414;SDS011;68864;44.972;19.612;2023-05-23T01:58:06;16.13;;;8.10;;
79414;SDS011;68864;44.972;19.612;2023-05-23T02:00:33;11.95;;;6.20;;
79414;SDS011;68864;44.972;19.612;2023-05-23T02:03:02;12.43;;;6.28;;
79414;SDS011;68864;44.972;19.612;2023-05-23T02:05:30;13.18;;;6.40;;
79414;SDS011;68864;44.972;19.612;2023-05-23T02:07:56;15.73;;;6.70;;
79414;SDS011;68864;44.972;19.612;2023-05-23T02:10:23;12.95;;;7.13;;
79414;SDS011;68864;44.972;19.612;2023-05-23T02:12:50;13.27;;;6.72;;
79414;SDS011;68864;44.972;19.612;2023-05-23T02:15:17;12.82;;;6.20;;
79414;SDS011;68864;44.972;19.612;2023-05-23T02:17:43;13.52;;;6.90;;
79414;SDS011;68864;44.972;19.612;2023-05-23T02:20:13;12.85;;;6.80;;
79414;SDS011;68864;44.972;19.612;2023-05-23T02:22:42;14.98;;;7.22;;
79414;SDS011;68864;44.972;19.612;2023-05-23T02:25:09;19.50;;;8.25;;
79414;SDS011;68864;44.972;19.612;2023-05-23T02:27:36;10.48;;;7.00;;
79414;SDS011;68864;44.972;19.612;2023-05-23T02:30:03;13.88;;;7.50;;
79414;SDS011;68864;44.972;19.612;2023-05-23T02:32:31;10.15;;;5.57;;
79414;SDS011;68864;44.972;19.612;2023-05-23T02:34:57;10.57;;;5.90;;
79414;SDS011;68864;44.972;19.612;2023-05-23T02:37:25;10.15;;;5.72;;
79414;SDS011;68864;44.972;19.612;2023-05-23T02:39:52;11.38;;;6.40;;
79414;SDS011;68864;44.972;19.612;2023-05-23T02:42:19;15.60;;;6.13;;
79414;SDS011;68864;44.972;19.612;2023-05-23T02:44:46;11.55;;;6.05;;
79414;SDS011;68864;44.972;19.612;2023-05-23T02:47:12;15.05;;;6.50;;
79414;SDS011;68864;44.972;19.612;2023-05-23T02:49:39;12.85;;;7.13;;
79414;SDS011;68864;44.972;19.612;2023-05-23T02:52:06;11.40;;;6.40;;
79414;SDS011;68864;44.972;19.612;2023-05-23T02:54:34;10.65;;;6.20;;
79414;SDS011;68864;44.972;19.612;2023-05-23T02:57:01;9.95;;;5.45;;
79414;SDS011;68864;44.972;19.612;2023-05-23T02:59:28;10.35;;;5.68;;
79414;SDS011;68864;44.972;19.612;2023-05-23T03:01:55;13.52;;;6.20;;
79414;SDS011;68864;44.972;19.612;2023-05-23T03:04:21;11.30;;;5.25;;
79414;SDS011;68864;44.972;19.612;2023-05-23T03:06:48;12.88;;;7.43;;
79414;SDS011;68864;44.972;19.612;2023-05-23T03:09:18;12.65;;;5.50;;
79414;SDS011;68864;44.972;19.612;2023-05-23T03:11:46;11.02;;;5.90;;
79414;SDS011;68864;44.972;19.612;2023-05-23T03:14:13;13.88;;;5.40;;
79414;SDS011;68864;44.972;19.612;2023-05-23T03:16:40;12.13;;;5.80;;
79414;SDS011;68864;44.972;19.612;2023-05-23T03:19:07;14.90;;;6.55;;
79414;SDS011;68864;44.972;19.612;2023-05-23T03:21:33;11.02;;;5.18;;
79414;SDS011;68864;44.972;19.612;2023-05-23T03:24:00;12.00;;;5.65;;
79414;SDS011;68864;44.972;19.612;2023-05-23T03:26:27;14.30;;;5.25;;
79414;SDS011;68864;44.972;19.612;2023-05-23T03:28:56;16.73;;;6.38;;
79414;SDS011;68864;44.972;19.612;2023-05-23T03:31:22;20.30;;;6.63;;
79414;SDS011;68864;44.972;19.612;2023-05-23T03:36:17;13.63;;;5.88;;
79414;SDS011;68864;44.972;19.612;2023-05-23T03:38:45;15.32;;;7.57;;
79414;SDS011;68864;44.972;19.612;2023-05-23T03:41:12;14.30;;;7.47;;
79414;SDS011;68864;44.972;19.612;2023-05-23T03:43:39;9.60;;;6.55;;
79414;SDS011;68864;44.972;19.612;2023-05-23T03:46:07;13.70;;;7.28;;
79414;SDS011;68864;44.972;19.612;2023-05-23T03:48:34;12.20;;;6.70;;
79414;SDS011;68864;44.972;19.612;2023-05-23T03:51:01;14.90;;;8.50;;
79414;SDS011;68864;44.972;19.612;2023-05-23T03:53:28;13.93;;;7.65;;
79414;SDS011;68864;44.972;19.612;2023-05-23T03:55:55;21.58;;;11.95;;
79414;SDS011;68864;44.972;19.612;2023-05-23T03:58:21;12.88;;;9.23;;
79414;SDS011;68864;44.972;19.612;2023-05-23T04:00:48;18.80;;;10.55;;
79414;SDS011;68864;44.972;19.612;2023-05-23T04:03:18;16.48;;;11.05;;
79414;SDS011;68864;44.972;19.612;2023-05-23T04:05:45;15.10;;;8.95;;
79414;SDS011;68864;44.972;19.612;2023-05-23T04:08:12;11.93;;;8.30;;
79414;SDS011;68864;44.972;19.612;2023-05-23T04:10:39;12.55;;;7.63;;
79414;SDS011;68864;44.972;19.612;2023-05-23T04:13:06;13.07;;;7.82;;
79414;SDS011;68864;44.972;19.612;2023-05-23T04:15:33;12.27;;;7.97;;
79414;SDS011;68864;44.972;19.612;2023-05-23T04:18:00;12.60;;;8.70;;
79414;SDS011;68864;44.972;19.612;2023-05-23T04:20:29;12.30;;;7.32;;
79414;SDS011;68864;44.972;19.612;2023-05-23T04:22:55;15.40;;;8.23;;
79414;SDS011;68864;44.972;19.612;2023-05-23T04:25:22;14.13;;;8.73;;
79414;SDS011;68864;44.972;19.612;2023-05-23T04:27:50;24.33;;;13.63;;
79414;SDS011;68864;44.972;19.612;2023-05-23T04:30:18;16.17;;;10.00;;
79414;SDS011;68864;44.972;19.612;2023-05-23T04:32:46;16.00;;;10.20;;
79414;SDS011;68864;44.972;19.612;2023-05-23T04:35:13;15.70;;;10.55;;
79414;SDS011;68864;44.972;19.612;2023-05-23T04:37:41;19.50;;;12.23;;
79414;SDS011;68864;44.972;19.612;2023-05-23T04:40:10;13.00;;;8.45;;
79414;SDS011;68864;44.972;19.612;2023-05-23T04:42:38;15.05;;;8.90;;
79414;SDS011;68864;44.972;19.612;2023-05-23T04:45:07;14.45;;;8.60;;
79414;SDS011;68864;44.972;19.612;2023-05-23T04:47:35;12.95;;;8.10;;
79414;SDS011;68864;44.972;19.612;2023-05-23T04:50:02;13.48;;;9.40;;
79414;SDS011;68864;44.972;19.612;2023-05-23T04:52:29;15.57;;;9.30;;
79414;SDS011;68864;44.972;19.612;2023-05-23T04:54:59;14.57;;;7.05;;
79414;SDS011;68864;44.972;19.612;2023-05-23T04:57:26;16.17;;;7.07;;
79414;SDS011;68864;44.972;19.612;2023-05-23T04:59:53;10.35;;;5.38;;
79414;SDS011;68864;44.972;19.612;2023-05-23T05:02:20;10.35;;;7.20;;
79414;SDS011;68864;44.972;19.612;2023-05-23T05:04:47;13.77;;;7.70;;
79414;SDS011;68864;44.972;19.612;2023-05-23T05:07:15;12.80;;;8.63;;
79414;SDS011;68864;44.972;19.612;2023-05-23T05:09:42;12.25;;;7.55;;
79414;SDS011;68864;44.972;19.612;2023-05-23T05:12:10;12.82;;;7.47;;
79414;SDS011;68864;44.972;19.612;2023-05-23T05:14:37;14.75;;;7.30;;
79414;SDS011;68864;44.972;19.612;2023-05-23T05:17:03;19.00;;;10.48;;
79414;SDS011;68864;44.972;19.612;2023-05-23T05:21:57;15.30;;;8.02;;
79414;SDS011;68864;44.972;19.612;2023-05-23T05:24:25;15.77;;;7.95;;
79414;SDS011;68864;44.972;19.612;2023-05-23T05:26:53;15.38;;;8.75;;
79414;SDS011;68864;44.972;19.612;2023-05-23T05:31:47;20.83;;;9.65;;
79414;SDS011;68864;44.972;19.612;2023-05-23T05:36:41;32.45;;;18.83;;
79414;SDS011;68864;44.972;19.612;2023-05-23T05:39:11;21.20;;;12.52;;
79414;SDS011;68864;44.972;19.612;2023-05-23T05:41:39;13.85;;;7.05;;
79414;SDS011;68864;44.972;19.612;2023-05-23T05:46:34;15.15;;;6.15;;
79414;SDS011;68864;44.972;19.612;2023-05-23T05:49:00;8.80;;;5.72;;
79414;SDS011;68864;44.972;19.612;2023-05-23T05:51:27;11.50;;;5.28;;
79414;SDS011;68864;44.972;19.612;2023-05-23T05:53:55;10.07;;;6.30;;
79414;SDS011;68864;44.972;19.612;2023-05-23T05:56:22;16.70;;;8.10;;
79414;SDS011;68864;44.972;19.612;2023-05-23T05:58:49;18.52;;;8.40;;
79414;SDS011;68864;44.972;19.612;2023-05-23T06:01:15;17.33;;;11.27;;
79414;SDS011;68864;44.972;19.612;2023-05-23T06:03:44;15.27;;;9.32;;
79414;SDS011;68864;44.972;19.612;2023-05-23T06:06:10;13.93;;;9.07;;
79414;SDS011;68864;44.972;19.612;2023-05-23T06:08:37;16.67;;;9.88;;
79414;SDS011;68864;44.972;19.612;2023-05-23T06:11:04;16.55;;;11.23;;
79414;SDS011;68864;44.972;19.612;2023-05-23T06:13:31;21.15;;;11.73;;
79414;SDS011;68864;44.972;19.612;2023-05-23T06:15:57;61.88;;;33.28;;
79414;SDS011;68864;44.972;19.612;2023-05-23T06:18:24;25.77;;;12.85;;
79414;SDS011;68864;44.972;19.612;2023-05-23T06:20:52;16.30;;;8.05;;
79414;SDS011;68864;44.972;19.612;2023-05-23T06:23:19;12.30;;;7.00;;
79414;SDS011;68864;44.972;19.612;2023-05-23T06:25:46;20.13;;;9.85;;
79414;SDS011;68864;44.972;19.612;2023-05-23T06:28:13;17.33;;;9.02;;
79414;SDS011;68864;44.972;19.612;2023-05-23T06:30:39;17.00;;;8.07;;
79414;SDS011;68864;44.972;19.612;2023-05-23T06:33:06;10.57;;;4.85;;
79414;SDS011;68864;44.972;19.612;2023-05-23T06:35:33;11.18;;;5.50;;
79414;SDS011;68864;44.972;19.612;2023-05-23T06:38:01;12.05;;;5.72;;
79414;SDS011;68864;44.972;19.612;2023-05-23T06:40:28;9.48;;;4.65;;
79414;SDS011;68864;44.972;19.612;2023-05-23T06:42:54;7.35;;;4.10;;
79414;SDS011;68864;44.972;19.612;2023-05-23T06:45:21;10.40;;;4.78;;
79414;SDS011;68864;44.972;19.612;2023-05-23T06:47:48;8.48;;;4.78;;
79414;SDS011;68864;44.972;19.612;2023-05-23T06:50:14;8.70;;;4.03;;
79414;SDS011;68864;44.972;19.612;2023-05-23T06:52:43;10.85;;;6.70;;
79414;SDS011;68864;44.972;19.612;2023-05-23T06:57:42;6.72;;;3.42;;
79414;SDS011;68864;44.972;19.612;2023-05-23T07:00:09;8.10;;;2.75;;
79414;SDS011;68864;44.972;19.612;2023-05-23T07:02:37;11.38;;;4.43;;
79414;SDS011;68864;44.972;19.612;2023-05-23T07:05:04;12.40;;;4.30;;
79414;SDS011;68864;44.972;19.612;2023-05-23T07:07:31;8.95;;;4.28;;
79414;SDS011;68864;44.972;19.612;2023-05-23T07:09:58;7.30;;;3.13;;
79414;SDS011;68864;44.972;19.612;2023-05-23T07:12:26;9.25;;;5.20;;
79414;SDS011;68864;44.972;19.612;2023-05-23T07:14:54;44.75;;;24.67;;
79414;SDS011;68864;44.972;19.612;2023-05-23T07:17:20;12.55;;;6.57;;
79414;SDS011;68864;44.972;19.612;2023-05-23T07:19:47;23.02;;;12.32;;
79414;SDS011;68864;44.972;19.612;2023-05-23T07:22:14;26.65;;;13.20;;
79414;SDS011;68864;44.972;19.612;2023-05-23T07:24:41;15.02;;;9.07;;
79414;SDS011;68864;44.972;19.612;2023-05-23T07:27:07;10.52;;;4.45;;
79414;SDS011;68864;44.972;19.612;2023-05-23T07:29:35;8.15;;;5.22;;
79414;SDS011;68864;44.972;19.612;2023-05-23T07:32:02;11.20;;;4.47;;
79414;SDS011;68864;44.972;19.612;2023-05-23T07:34:29;9.48;;;4.10;;
79414;SDS011;68864;44.972;19.612;2023-05-23T07:36:56;5.22;;;2.95;;
79414;SDS011;68864;44.972;19.612;2023-05-23T07:39:23;6.40;;;3.72;;
79414;SDS011;68864;44.972;19.612;2023-05-23T07:41:51;10.80;;;4.68;;
79414;SDS011;68864;44.972;19.612;2023-05-23T07:44:18;10.32;;;4.78;;
79414;SDS011;68864;44.972;19.612;2023-05-23T07:46:46;9.80;;;4.38;;
79414;SDS011;68864;44.972;19.612;2023-05-23T07:49:13;8.32;;;4.75;;
79414;SDS011;68864;44.972;19.612;2023-05-23T07:51:40;10.35;;;3.95;;
79414;SDS011;68864;44.972;19.612;2023-05-23T07:54:07;12.40;;;5.15;;
79414;SDS011;68864;44.972;19.612;2023-05-23T07:56:34;8.90;;;4.40;;
79414;SDS011;68864;44.972;19.612;2023-05-23T07:59:02;10.18;;;4.38;;
79414;SDS011;68864;44.972;19.612;2023-05-23T08:01:29;9.50;;;4.07;;
79414;SDS011;68864;44.972;19.612;2023-05-23T08:03:57;8.20;;;4.03;;
79414;SDS011;68864;44.972;19.612;2023-05-23T08:06:24;10.63;;;4.47;;
79414;SDS011;68864;44.972;19.612;2023-05-23T08:08:51;10.30;;;3.83;;
79414;SDS011;68864;44.972;19.612;2023-05-23T08:11:17;6.78;;;2.83;;
79414;SDS011;68864;44.972;19.612;2023-05-23T08:13:44;8.07;;;2.72;;
79414;SDS011;68864;44.972;19.612;2023-05-23T08:16:11;10.25;;;2.53;;
79414;SDS011;68864;44.972;19.612;2023-05-23T08:18:38;9.05;;;3.53;;
79414;SDS011;68864;44.972;19.612;2023-05-23T08:21:06;9.10;;;4.28;;
79414;SDS011;68864;44.972;19.612;2023-05-23T08:23:33;8.38;;;3.42;;
79414;SDS011;68864;44.972;19.612;2023-05-23T08:26:00;7.63;;;3.50;;
79414;SDS011;68864;44.972;19.612;2023-05-23T08:28:27;10.60;;;4.80;;
79414;SDS011;68864;44.972;19.612;2023-05-23T08:30:53;6.45;;;2.35;;
79414;SDS011;68864;44.972;19.612;2023-05-23T08:33:22;9.77;;;2.45;;
79414;SDS011;68864;44.972;19.612;2023-05-23T08:35:49;8.82;;;3.63;;
79414;SDS011;68864;44.972;19.612;2023-05-23T08:38:17;8.52;;;2.22;;
79414;SDS011;68864;44.972;19.612;2023-05-23T08:40:48;6.30;;;3.08;;
79414;SDS011;68864;44.972;19.612;2023-05-23T08:43:16;6.95;;;2.70;;
79414;SDS011;68864;44.972;19.612;2023-05-23T08:45:43;7.53;;;2.47;;
79414;SDS011;68864;44.972;19.612;2023-05-23T08:48:10;4.75;;;2.05;;
79414;SDS011;68864;44.972;19.612;2023-05-23T08:50:39;11.77;;;3.83;;
79414;SDS011;68864;44.972;19.612;2023-05-23T08:53:08;5.50;;;2.47;;
79414;SDS011;68864;44.972;19.612;2023-05-23T08:55:36;5.75;;;2.25;;
79414;SDS011;68864;44.972;19.612;2023-05-23T08:58:03;4.82;;;1.90;;
79414;SDS011;68864;44.972;19.612;2023-05-23T09:00:30;6.82;;;2.47;;
79414;SDS011;68864;44.972;19.612;2023-05-23T09:02:59;5.40;;;1.77;;
79414;SDS011;68864;44.972;19.612;2023-05-23T09:05:26;5.85;;;1.98;;
79414;SDS011;68864;44.972;19.612;2023-05-23T09:07:52;5.25;;;2.08;;
79414;SDS011;68864;44.972;19.612;2023-05-23T09:10:20;10.00;;;5.53;;
79414;SDS011;68864;44.972;19.612;2023-05-23T09:12:49;9.27;;;3.35;;
79414;SDS011;68864;44.972;19.612;2023-05-23T09:15:15;8.95;;;4.40;;
79414;SDS011;68864;44.972;19.612;2023-05-23T09:17:42;10.52;;;3.78;;
79414;SDS011;68864;44.972;19.612;2023-05-23T09:20:11;4.07;;;1.67;;
79414;SDS011;68864;44.972;19.612;2023-05-23T09:22:40;4.43;;;2.15;;
79414;SDS011;68864;44.972;19.612;2023-05-23T09:25:07;4.45;;;1.88;;
79414;SDS011;68864;44.972;19.612;2023-05-23T09:27:34;5.20;;;1.40;;
79414;SDS011;68864;44.972;19.612;2023-05-23T09:30:06;6.38;;;1.45;;
79414;SDS011;68864;44.972;19.612;2023-05-23T09:32:33;10.60;;;1.55;;
79414;SDS011;68864;44.972;19.612;2023-05-23T09:35:00;7.35;;;3.33;;
79414;SDS011;68864;44.972;19.612;2023-05-23T09:37:29;6.07;;;2.22;;
79414;SDS011;68864;44.972;19.612;2023-05-23T09:39:57;6.20;;;2.35;;
79414;SDS011;68864;44.972;19.612;2023-05-23T09:42:26;4.13;;;1.15;;
79414;SDS011;68864;44.972;19.612;2023-05-23T09:44:57;3.50;;;0.75;;
79414;SDS011;68864;44.972;19.612;2023-05-23T09:47:25;7.25;;;2.33;;
79414;SDS011;68864;44.972;19.612;2023-05-23T09:49:52;7.70;;;2.60;;
79414;SDS011;68864;44.972;19.612;2023-05-23T09:52:19;4.15;;;1.67;;
79414;SDS011;68864;44.972;19.612;2023-05-23T09:54:46;5.03;;;1.77;;
79414;SDS011;68864;44.972;19.612;2023-05-23T09:57:13;7.60;;;1.95;;
79414;SDS011;68864;44.972;19.612;2023-05-23T09:59:44;6.43;;;3.10;;
79414;SDS011;68864;44.972;19.612;2023-05-23T10:02:15;7.50;;;2.17;;
79414;SDS011;68864;44.972;19.612;2023-05-23T10:04:45;9.77;;;2.63;;
79414;SDS011;68864;44.972;19.612;2023-05-23T10:07:17;5.10;;;0.98;;
79414;SDS011;68864;44.972;19.612;2023-05-23T10:09:46;6.32;;;1.90;;
79414;SDS011;68864;44.972;19.612;2023-05-23T10:15:14;5.45;;;2.58;;
79414;SDS011;68864;44.972;19.612;2023-05-23T10:17:51;8.18;;;2.28;;
79414;SDS011;68864;44.972;19.612;2023-05-23T10:20:25;8.77;;;3.30;;
79414;SDS011;68864;44.972;19.612;2023-05-23T10:22:56;6.53;;;2.28;;
79414;SDS011;68864;44.972;19.612;2023-05-23T10:25:24;10.98;;;5.63;;
79414;SDS011;68864;44.972;19.612;2023-05-23T10:27:52;5.55;;;2.40;;
79414;SDS011;68864;44.972;19.612;2023-05-23T10:30:23;6.28;;;1.30;;
79414;SDS011;68864;44.972;19.612;2023-05-23T10:32:50;5.43;;;2.40;;
79414;SDS011;68864;44.972;19.612;2023-05-23T10:35:20;7.75;;;2.83;;
79414;SDS011;68864;44.972;19.612;2023-05-23T10:38:00;7.35;;;3.10;;
79414;SDS011;68864;44.972;19.612;2023-05-23T10:40:35;10.20;;;2.00;;
79414;SDS011;68864;44.972;19.612;2023-05-23T10:43:13;8.68;;;4.47;;
79414;SDS011;68864;44.972;19.612;2023-05-23T10:45:44;11.57;;;4.95;;
79414;SDS011;68864;44.972;19.612;2023-05-23T10:48:21;8.07;;;3.53;;
79414;SDS011;68864;44.972;19.612;2023-05-23T10:51:02;8.27;;;1.50;;
79414;SDS011;68864;44.972;19.612;2023-05-23T10:53:31;9.70;;;2.63;;
79414;SDS011;68864;44.972;19.612;2023-05-23T10:56:01;6.95;;;3.08;;
79414;SDS011;68864;44.972;19.612;2023-05-23T10:58:31;4.82;;;2.35;;
79414;SDS011;68864;44.972;19.612;2023-05-23T11:00:59;6.72;;;2.28;;
79414;SDS011;68864;44.972;19.612;2023-05-23T11:03:30;8.85;;;1.85;;
79414;SDS011;68864;44.972;19.612;2023-05-23T11:05:59;8.10;;;3.10;;
79414;SDS011;68864;44.972;19.612;2023-05-23T11:08:28;13.23;;;3.10;;
79414;SDS011;68864;44.972;19.612;2023-05-23T11:11:04;3.70;;;2.22;;
79414;SDS011;68864;44.972;19.612;2023-05-23T11:16:24;9.07;;;2.83;;
79414;SDS011;68864;44.972;19.612;2023-05-23T11:18:56;6.55;;;2.17;;
79414;SDS011;68864;44.972;19.612;2023-05-23T11:21:49;50.47;;;26.88;;
79414;SDS011;68864;44.972;19.612;2023-05-23T11:24:20;17.58;;;9.07;;
79414;SDS011;68864;44.972;19.612;2023-05-23T11:26:53;26.85;;;17.25;;
79414;SDS011;68864;44.972;19.612;2023-05-23T11:29:24;11.40;;;7.10;;
79414;SDS011;68864;44.972;19.612;2023-05-23T11:31:52;9.50;;;4.93;;
79414;SDS011;68864;44.972;19.612;2023-05-23T11:34:19;6.43;;;2.58;;
79414;SDS011;68864;44.972;19.612;2023-05-23T11:36:46;7.63;;;3.97;;
79414;SDS011;68864;44.972;19.612;2023-05-23T11:39:19;9.80;;;5.43;;
79414;SDS011;68864;44.972;19.612;2023-05-23T11:41:49;14.10;;;4.22;;
79414;SDS011;68864;44.972;19.612;2023-05-23T11:44:23;5.45;;;2.70;;
79414;SDS011;68864;44.972;19.612;2023-05-23T11:47:00;8.07;;;4.60;;
79414;SDS011;68864;44.972;19.612;2023-05-23T11:49:28;12.77;;;4.70;;
79414;SDS011;68864;44.972;19.612;2023-05-23T11:51:56;9.57;;;5.93;;
79414;SDS011;68864;44.972;19.612;2023-05-23T11:54:25;13.90;;;7.75;;
79414;SDS011;68864;44.972;19.612;2023-05-23T11:56:52;8.68;;;2.53;;
79414;SDS011;68864;44.972;19.612;2023-05-23T11:59:20;5.82;;;1.50;;
79414;SDS011;68864;44.972;19.612;2023-05-23T12:01:47;6.85;;;2.92;;
79414;SDS011;68864;44.972;19.612;2023-05-23T12:06:40;5.35;;;2.53;;
79414;SDS011;68864;44.972;19.612;2023-05-23T12:09:07;6.43;;;2.95;;
79414;SDS011;68864;44.972;19.612;2023-05-23T12:11:38;6.38;;;3.35;;
79414;SDS011;68864;44.972;19.612;2023-05-23T12:14:06;5.57;;;2.30;;
79414;SDS011;68864;44.972;19.612;2023-05-23T12:16:33;6.53;;;2.58;;
79414;SDS011;68864;44.972;19.612;2023-05-23T12:19:00;6.03;;;3.05;;
79414;SDS011;68864;44.972;19.612;2023-05-23T12:21:39;7.35;;;3.42;;
79414;SDS011;68864;44.972;19.612;2023-05-23T12:24:11;7.20;;;2.55;;
79414;SDS011;68864;44.972;19.612;2023-05-23T12:26:50;4.93;;;2.03;;
79414;SDS011;68864;44.972;19.612;2023-05-23T12:29:19;4.22;;;1.80;;
79414;SDS011;68864;44.972;19.612;2023-05-23T12:31:47;4.22;;;1.98;;
79414;SDS011;68864;44.972;19.612;2023-05-23T12:34:18;6.15;;;2.00;;
79414;SDS011;68864;44.972;19.612;2023-05-23T12:36:46;4.07;;;1.92;;
79414;SDS011;68864;44.972;19.612;2023-05-23T12:39:14;7.78;;;2.17;;
79414;SDS011;68864;44.972;19.612;2023-05-23T12:41:41;6.00;;;2.15;;
79414;SDS011;68864;44.972;19.612;2023-05-23T12:44:15;5.35;;;2.85;;
79414;SDS011;68864;44.972;19.612;2023-05-23T12:46:44;5.82;;;2.50;;
79414;SDS011;68864;44.972;19.612;2023-05-23T12:49:12;11.30;;;3.08;;
79414;SDS011;68864;44.972;19.612;2023-05-23T12:51:39;4.97;;;3.03;;
79414;SDS011;68864;44.972;19.612;2023-05-23T12:54:07;9.27;;;2.22;;
79414;SDS011;68864;44.972;19.612;2023-05-23T12:56:34;7.57;;;2.83;;
79414;SDS011;68864;44.972;19.612;2023-05-23T13:01:29;3.90;;;1.85;;
79414;SDS011;68864;44.972;19.612;2023-05-23T13:03:58;6.05;;;1.77;;
79414;SDS011;68864;44.972;19.612;2023-05-23T13:06:25;4.88;;;1.83;;
79414;SDS011;68864;44.972;19.612;2023-05-23T13:08:52;3.70;;;1.67;;
79414;SDS011;68864;44.972;19.612;2023-05-23T13:11:19;5.88;;;1.88;;
79414;SDS011;68864;44.972;19.612;2023-05-23T13:13:46;6.05;;;1.27;;
79414;SDS011;68864;44.972;19.612;2023-05-23T13:18:41;3.92;;;1.55;;
79414;SDS011;68864;44.972;19.612;2023-05-23T13:21:08;7.78;;;2.03;;
79414;SDS011;68864;44.972;19.612;2023-05-23T13:23:34;5.20;;;1.65;;
79414;SDS011;68864;44.972;19.612;2023-05-23T13:26:03;5.47;;;2.85;;
79414;SDS011;68864;44.972;19.612;2023-05-23T13:28:30;5.30;;;2.35;;
79414;SDS011;68864;44.972;19.612;2023-05-23T13:30:57;7.57;;;2.22;;
79414;SDS011;68864;44.972;19.612;2023-05-23T13:35:52;5.63;;;2.20;;
79414;SDS011;68864;44.972;19.612;2023-05-23T13:38:19;6.68;;;2.30;;
79414;SDS011;68864;44.972;19.612;2023-05-23T13:40:46;4.10;;;2.05;;
79414;SDS011;68864;44.972;19.612;2023-05-23T13:43:15;4.43;;;2.13;;
79414;SDS011;68864;44.972;19.612;2023-05-23T13:45:42;3.63;;;1.60;;
79414;SDS011;68864;44.972;19.612;2023-05-23T13:48:09;4.18;;;1.60;;
79414;SDS011;68864;44.972;19.612;2023-05-23T13:53:04;5.13;;;1.92;;
79414;SDS011;68864;44.972;19.612;2023-05-23T13:55:38;4.38;;;2.22;;
79414;SDS011;68864;44.972;19.612;2023-05-23T13:58:05;6.30;;;2.20;;
79414;SDS011;68864;44.972;19.612;2023-05-23T14:02:58;3.70;;;1.95;;
79414;SDS011;68864;44.972;19.612;2023-05-23T14:07:51;3.30;;;1.63;;
79414;SDS011;68864;44.972;19.612;2023-05-23T14:12:46;6.32;;;1.75;;
79414;SDS011;68864;44.972;19.612;2023-05-23T14:17:39;5.43;;;1.52;;
79414;SDS011;68864;44.972;19.612;2023-05-23T14:22:33;4.00;;;1.98;;
79414;SDS011;68864;44.972;19.612;2023-05-23T14:27:28;3.78;;;1.85;;
79414;SDS011;68864;44.972;19.612;2023-05-23T14:29:55;4.80;;;2.80;;
79414;SDS011;68864;44.972;19.612;2023-05-23T14:34:48;5.65;;;2.15;;
79414;SDS011;68864;44.972;19.612;2023-05-23T14:39:41;7.57;;;2.08;;
79414;SDS011;68864;44.972;19.612;2023-05-23T14:44:36;7.70;;;2.03;;
79414;SDS011;68864;44.972;19.612;2023-05-23T14:47:03;4.03;;;2.30;;
79414;SDS011;68864;44.972;19.612;2023-05-23T14:49:30;4.03;;;1.23;;
79414;SDS011;68864;44.972;19.612;2023-05-23T14:54:23;8.60;;;2.60;;
79414;SDS011;68864;44.972;19.612;2023-05-23T14:59:16;3.03;;;1.27;;
79414;SDS011;68864;44.972;19.612;2023-05-23T15:04:11;3.83;;;1.90;;
79414;SDS011;68864;44.972;19.612;2023-05-23T15:06:38;4.10;;;2.60;;
79414;SDS011;68864;44.972;19.612;2023-05-23T15:09:05;3.83;;;1.67;;
79414;SDS011;68864;44.972;19.612;2023-05-23T15:11:34;3.90;;;1.52;;
79414;SDS011;68864;44.972;19.612;2023-05-23T15:14:02;3.65;;;1.60;;
79414;SDS011;68864;44.972;19.612;2023-05-23T15:16:29;8.23;;;4.72;;
79414;SDS011;68864;44.972;19.612;2023-05-23T15:18:58;4.72;;;1.20;;
79414;SDS011;68864;44.972;19.612;2023-05-23T15:21:25;4.88;;;1.75;;
79414;SDS011;68864;44.972;19.612;2023-05-23T15:26:18;6.35;;;2.13;;
79414;SDS011;68864;44.972;19.612;2023-05-23T15:28:45;4.20;;;1.95;;
79414;SDS011;68864;44.972;19.612;2023-05-23T15:31:12;7.70;;;2.30;;
79414;SDS011;68864;44.972;19.612;2023-05-23T15:36:07;7.72;;;3.25;;
79414;SDS011;68864;44.972;19.612;2023-05-23T15:38:34;6.95;;;2.85;;
79414;SDS011;68864;44.972;19.612;2023-05-23T15:43:28;4.88;;;1.60;;